createdAt,value
2024-05-09T00:07:42.290Z,7.55
2024-05-09T00:17:47.612Z,7.80
2024-05-09T00:27:52.813Z,8.02
2024-05-09T00:37:57.984Z,8.05
2024-05-09T00:48:05.603Z,9.43
2024-05-09T00:58:12.153Z,9.48
2024-05-09T01:08:17.908Z,9.05
2024-05-09T01:18:23.560Z,11.80
2024-05-09T01:28:28.737Z,10.40
2024-05-09T01:38:33.887Z,11.45
2024-05-09T01:48:39.329Z,11.93
2024-05-09T01:58:44.626Z,12.02
2024-05-09T02:08:49.719Z,11.75
2024-05-09T02:18:54.924Z,12.95
2024-05-09T02:29:00.233Z,14.63
2024-05-09T02:39:05.496Z,12.32
2024-05-09T02:49:10.780Z,13.20
2024-05-09T02:59:16.086Z,15.57
2024-05-09T03:09:23.764Z,14.10
2024-05-09T03:19:28.968Z,16.48
2024-05-09T03:29:34.418Z,16.65
2024-05-09T03:39:39.602Z,15.45
2024-05-09T03:49:44.818Z,16.52
2024-05-09T03:59:49.975Z,15.93
2024-05-09T04:09:55.113Z,15.55
2024-05-09T04:20:00.411Z,15.05
2024-05-09T04:30:09.861Z,15.07
2024-05-09T04:40:24.413Z,13.32
2024-05-09T04:50:38.973Z,13.52
2024-05-09T05:00:44.995Z,14.02
2024-05-09T05:10:50.384Z,13.35
2024-05-09T05:20:56.607Z,14.85
2024-05-09T05:31:01.894Z,15.18
2024-05-09T05:41:07.069Z,14.73
2024-05-09T05:51:12.320Z,14.40
2024-05-09T06:01:17.604Z,13.82
2024-05-09T06:11:22.818Z,14.25
2024-05-09T06:21:27.987Z,13.73
2024-05-09T06:31:33.129Z,14.88
2024-05-09T06:41:38.267Z,14.38
2024-05-09T06:51:43.415Z,14.23
2024-05-09T07:01:48.629Z,17.13
2024-05-09T07:11:53.910Z,14.13
2024-05-09T07:21:59.084Z,13.68
2024-05-09T07:32:04.597Z,11.77
2024-05-09T07:42:09.787Z,11.40
2024-05-09T07:53:29.772Z,13.13
2024-05-09T08:02:40.000Z,11.80
2024-05-09T08:12:45.378Z,13.35
2024-05-09T08:22:50.480Z,11.10
2024-05-09T08:32:55.755Z,8.93
2024-05-09T08:43:01.162Z,8.55
2024-05-09T08:53:06.969Z,8.52
2024-05-09T09:03:17.218Z,9.97
2024-05-09T09:13:22.508Z,8.40
2024-05-09T09:23:27.702Z,8.90
2024-05-09T09:33:33.319Z,6.53
2024-05-09T09:43:42.344Z,7.43
2024-05-09T09:53:48.933Z,8.82
2024-05-09T10:03:54.438Z,7.60
2024-05-09T10:14:00.857Z,9.82
2024-05-09T10:24:06.140Z,8.50
2024-05-09T10:34:22.562Z,8.60
2024-05-09T10:44:27.804Z,9.98
2024-05-09T10:54:39.517Z,8.40
2024-05-09T11:04:44.892Z,10.55
2024-05-09T11:14:54.077Z,8.40
2024-05-09T11:24:59.497Z,9.07
2024-05-09T11:35:05.017Z,7.60
2024-05-09T11:45:10.121Z,11.45
2024-05-09T11:55:15.498Z,8.43
2024-05-09T12:05:21.002Z,11.18
2024-05-09T12:15:25.761Z,9.82
2024-05-09T12:25:30.870Z,11.43
2024-05-09T12:35:36.254Z,20.00
2024-05-09T12:45:41.462Z,10.10
2024-05-09T12:55:53.605Z,12.23
2024-05-09T13:06:02.271Z,9.65
2024-05-09T13:16:07.589Z,11.65
2024-05-09T13:26:12.753Z,12.55
2024-05-09T13:36:18.014Z,10.48
2024-05-09T13:46:23.221Z,11.65
2024-05-09T13:56:28.394Z,9.27
2024-05-09T14:06:33.120Z,11.00
2024-05-09T14:16:39.066Z,9.48
2024-05-09T14:26:44.448Z,11.18
2024-05-09T14:36:49.863Z,10.73
2024-05-09T14:46:55.088Z,10.10
2024-05-09T14:57:00.421Z,13.63
2024-05-09T15:07:07.099Z,14.00
2024-05-09T15:17:13.338Z,11.38
2024-05-09T15:27:19.107Z,10.90
2024-05-09T15:37:24.470Z,11.90
2024-05-09T15:47:30.012Z,11.80
2024-05-09T15:57:35.396Z,11.15
2024-05-09T16:07:40.700Z,12.98
2024-05-09T16:17:46.541Z,14.48
2024-05-09T16:27:51.834Z,10.38
2024-05-09T16:37:57.270Z,13.02
2024-05-09T16:48:03.137Z,16.08
2024-05-09T16:58:09.097Z,14.38
2024-05-09T17:08:15.489Z,14.95
2024-05-09T17:18:21.082Z,14.75
2024-05-09T17:28:26.737Z,17.33
2024-05-09T17:38:32.036Z,16.58
2024-05-09T17:48:37.333Z,18.92
2024-05-09T17:58:42.900Z,16.90
2024-05-09T18:08:48.051Z,16.77
2024-05-09T18:18:53.450Z,19.42
2024-05-09T18:28:58.863Z,19.58
2024-05-09T18:39:04.259Z,20.95
2024-05-09T18:49:09.605Z,18.20
2024-05-09T18:59:14.824Z,21.02
2024-05-09T19:09:20.903Z,18.85
2024-05-09T19:19:26.283Z,20.10
2024-05-09T19:29:31.623Z,19.58
2024-05-09T19:39:37.022Z,20.13
2024-05-09T19:49:42.334Z,17.40
2024-05-09T19:59:47.575Z,18.38
2024-05-09T20:09:52.701Z,17.83
2024-05-09T20:19:58.087Z,19.25
2024-05-09T20:30:07.974Z,18.92
2024-05-09T20:40:25.319Z,19.15
2024-05-09T20:50:40.451Z,20.55
2024-05-09T21:00:47.764Z,19.90
2024-05-09T21:10:53.112Z,21.90
2024-05-09T21:20:58.382Z,21.33
2024-05-09T21:31:03.612Z,20.73
2024-05-09T21:41:09.163Z,21.02
2024-05-09T21:51:15.070Z,21.95
2024-05-09T22:01:22.072Z,25.25
2024-05-09T22:11:27.256Z,23.73
2024-05-09T22:21:32.495Z,26.58
2024-05-09T22:31:37.999Z,26.70
2024-05-09T22:41:44.589Z,26.20
2024-05-09T22:51:49.789Z,30.27
2024-05-09T23:01:54.993Z,28.10
2024-05-09T23:12:00.313Z,28.33
2024-05-09T23:22:05.662Z,29.98
2024-05-09T23:32:10.759Z,30.17
2024-05-09T23:42:15.848Z,31.42
2024-05-09T23:52:21.046Z,29.88
